sensor_id;sensor_type;location;lat;lon;timestamp;P1;durP1;ratioP1;P2;durP2;ratioP2
7383;SDS011;3733;47.994;8.820;2022-11-15T00:02:06;58.33;;;9.73;;
7383;SDS011;3733;47.994;8.820;2022-11-15T00:04:32;70.13;;;10.20;;
7383;SDS011;3733;47.994;8.820;2022-11-15T00:06:58;51.47;;;9.93;;
7383;SDS011;3733;47.994;8.820;2022-11-15T00:09:23;109.23;;;12.07;;
7383;SDS011;3733;47.994;8.820;2022-11-15T00:11:49;50.23;;;9.37;;
7383;SDS011;3733;47.994;8.820;2022-11-15T00:14:16;64.00;;;8.87;;
7383;SDS011;3733;47.994;8.820;2022-11-15T00:16:42;115.03;;;11.53;;
7383;SDS011;3733;47.994;8.820;2022-11-15T00:19:08;84.37;;;12.07;;
7383;SDS011;3733;47.994;8.820;2022-11-15T00:21:34;53.37;;;10.83;;
7383;SDS011;3733;47.994;8.820;2022-11-15T00:23:59;59.23;;;10.87;;
7383;SDS011;3733;47.994;8.820;2022-11-15T00:26:25;158.47;;;12.93;;
7383;SDS011;3733;47.994;8.820;2022-11-15T00:28:51;87.70;;;11.30;;
7383;SDS011;3733;47.994;8.820;2022-11-15T00:31:17;54.67;;;12.60;;
7383;SDS011;3733;47.994;8.820;2022-11-15T00:33:43;128.37;;;13.17;;
7383;SDS011;3733;47.994;8.820;2022-11-15T00:36:10;77.40;;;12.90;;
7383;SDS011;3733;47.994;8.820;2022-11-15T00:38:37;72.47;;;13.50;;
7383;SDS011;3733;47.994;8.820;2022-11-15T00:41:04;62.90;;;12.43;;
7383;SDS011;3733;47.994;8.820;2022-11-15T00:43:31;77.00;;;13.90;;
7383;SDS011;3733;47.994;8.820;2022-11-15T00:45:57;72.83;;;11.70;;
7383;SDS011;3733;47.994;8.820;2022-11-15T00:48:22;64.13;;;12.60;;
7383;SDS011;3733;47.994;8.820;2022-11-15T00:50:48;37.27;;;9.30;;
7383;SDS011;3733;47.994;8.820;2022-11-15T00:53:15;28.23;;;8.53;;
7383;SDS011;3733;47.994;8.820;2022-11-15T00:55:41;25.63;;;7.93;;
7383;SDS011;3733;47.994;8.820;2022-11-15T00:58:07;35.27;;;8.30;;
7383;SDS011;3733;47.994;8.820;2022-11-15T01:00:33;16.70;;;7.70;;
7383;SDS011;3733;47.994;8.820;2022-11-15T01:02:59;12.30;;;6.40;;
7383;SDS011;3733;47.994;8.820;2022-11-15T01:05:25;21.30;;;7.20;;
7383;SDS011;3733;47.994;8.820;2022-11-15T01:07:51;19.60;;;6.93;;
7383;SDS011;3733;47.994;8.820;2022-11-15T01:10:17;16.20;;;6.73;;
7383;SDS011;3733;47.994;8.820;2022-11-15T01:12:43;15.77;;;7.50;;
7383;SDS011;3733;47.994;8.820;2022-11-15T01:15:09;15.03;;;7.87;;
7383;SDS011;3733;47.994;8.820;2022-11-15T01:17:34;60.50;;;11.20;;
7383;SDS011;3733;47.994;8.820;2022-11-15T01:20:00;39.50;;;10.33;;
7383;SDS011;3733;47.994;8.820;2022-11-15T01:22:26;17.83;;;9.40;;
7383;SDS011;3733;47.994;8.820;2022-11-15T01:24:51;17.93;;;9.53;;
7383;SDS011;3733;47.994;8.820;2022-11-15T01:27:17;29.63;;;9.60;;
7383;SDS011;3733;47.994;8.820;2022-11-15T01:29:42;21.47;;;9.07;;
7383;SDS011;3733;47.994;8.820;2022-11-15T01:32:08;25.07;;;9.23;;
7383;SDS011;3733;47.994;8.820;2022-11-15T01:34:34;35.10;;;8.40;;
7383;SDS011;3733;47.994;8.820;2022-11-15T01:36:59;21.80;;;7.13;;
7383;SDS011;3733;47.994;8.820;2022-11-15T01:39:25;38.40;;;8.60;;
7383;SDS011;3733;47.994;8.820;2022-11-15T01:41:51;28.80;;;11.93;;
7383;SDS011;3733;47.994;8.820;2022-11-15T01:47:16;34.23;;;5.83;;
7383;SDS011;3733;47.994;8.820;2022-11-15T01:49:55;22.80;;;6.03;;
7383;SDS011;3733;47.994;8.820;2022-11-15T01:52:26;24.40;;;7.00;;
7383;SDS011;3733;47.994;8.820;2022-11-15T01:54:59;28.40;;;7.03;;
7383;SDS011;3733;47.994;8.820;2022-11-15T01:57:30;27.90;;;5.93;;
7383;SDS011;3733;47.994;8.820;2022-11-15T01:59:56;65.37;;;7.70;;
7383;SDS011;3733;47.994;8.820;2022-11-15T02:02:25;50.23;;;7.13;;
7383;SDS011;3733;47.994;8.820;2022-11-15T02:04:50;81.53;;;7.90;;
7383;SDS011;3733;47.994;8.820;2022-11-15T02:07:17;57.87;;;7.13;;
7383;SDS011;3733;47.994;8.820;2022-11-15T02:09:44;26.47;;;5.93;;
7383;SDS011;3733;47.994;8.820;2022-11-15T02:12:12;35.10;;;6.47;;
7383;SDS011;3733;47.994;8.820;2022-11-15T02:14:42;27.10;;;6.80;;
7383;SDS011;3733;47.994;8.820;2022-11-15T02:20:08;45.90;;;8.30;;
7383;SDS011;3733;47.994;8.820;2022-11-15T02:28:56;41.07;;;8.87;;
7383;SDS011;3733;47.994;8.820;2022-11-15T02:37:02;42.47;;;7.90;;
7383;SDS011;3733;47.994;8.820;2022-11-15T02:39:41;18.73;;;5.40;;
7383;SDS011;3733;47.994;8.820;2022-11-15T02:42:25;12.43;;;5.30;;
7383;SDS011;3733;47.994;8.820;2022-11-15T02:45:17;14.13;;;5.13;;
7383;SDS011;3733;47.994;8.820;2022-11-15T02:47:52;38.73;;;5.93;;
7383;SDS011;3733;47.994;8.820;2022-11-15T02:50:23;19.43;;;5.57;;
7383;SDS011;3733;47.994;8.820;2022-11-15T02:52:52;7.20;;;4.93;;
7383;SDS011;3733;47.994;8.820;2022-11-15T02:55:51;9.00;;;4.97;;
7383;SDS011;3733;47.994;8.820;2022-11-15T03:01:18;9.60;;;5.00;;
7383;SDS011;3733;47.994;8.820;2022-11-15T03:03:59;5.83;;;4.50;;
7383;SDS011;3733;47.994;8.820;2022-11-15T03:06:44;8.60;;;4.70;;
7383;SDS011;3733;47.994;8.820;2022-11-15T03:12:04;11.67;;;4.90;;
7383;SDS011;3733;47.994;8.820;2022-11-15T03:14:37;9.60;;;4.77;;
7383;SDS011;3733;47.994;8.820;2022-11-15T03:19:47;10.30;;;5.40;;
7383;SDS011;3733;47.994;8.820;2022-11-15T03:22:26;12.50;;;4.60;;
7383;SDS011;3733;47.994;8.820;2022-11-15T03:24:56;14.93;;;4.60;;
7383;SDS011;3733;47.994;8.820;2022-11-15T03:27:25;4.73;;;4.00;;
7383;SDS011;3733;47.994;8.820;2022-11-15T03:29:57;8.70;;;4.40;;
7383;SDS011;3733;47.994;8.820;2022-11-15T03:32:28;4.40;;;3.80;;
7383;SDS011;3733;47.994;8.820;2022-11-15T03:34:57;6.40;;;4.30;;
7383;SDS011;3733;47.994;8.820;2022-11-15T03:37:31;5.80;;;4.50;;
7383;SDS011;3733;47.994;8.820;2022-11-15T03:40:02;5.00;;;4.20;;
7383;SDS011;3733;47.994;8.820;2022-11-15T03:42:39;4.97;;;4.10;;
7383;SDS011;3733;47.994;8.820;2022-11-15T03:45:17;5.57;;;4.33;;
7383;SDS011;3733;47.994;8.820;2022-11-15T03:48:13;7.53;;;4.27;;
7383;SDS011;3733;47.994;8.820;2022-11-15T03:50:43;5.00;;;4.07;;
7383;SDS011;3733;47.994;8.820;2022-11-15T03:53:11;6.37;;;4.60;;
7383;SDS011;3733;47.994;8.820;2022-11-15T03:55:37;5.77;;;4.63;;
7383;SDS011;3733;47.994;8.820;2022-11-15T03:58:03;7.40;;;4.60;;
7383;SDS011;3733;47.994;8.820;2022-11-15T04:00:29;5.80;;;3.93;;
7383;SDS011;3733;47.994;8.820;2022-11-15T04:02:54;5.07;;;4.37;;
7383;SDS011;3733;47.994;8.820;2022-11-15T04:05:20;7.73;;;4.53;;
7383;SDS011;3733;47.994;8.820;2022-11-15T04:07:45;5.60;;;4.67;;
7383;SDS011;3733;47.994;8.820;2022-11-15T04:10:11;4.80;;;4.23;;
7383;SDS011;3733;47.994;8.820;2022-11-15T04:12:42;8.50;;;5.67;;
7383;SDS011;3733;47.994;8.820;2022-11-15T04:15:12;6.30;;;5.03;;
7383;SDS011;3733;47.994;8.820;2022-11-15T04:17:55;8.17;;;5.63;;
7383;SDS011;3733;47.994;8.820;2022-11-15T04:20:22;25.53;;;6.00;;
7383;SDS011;3733;47.994;8.820;2022-11-15T04:23:13;9.50;;;5.30;;
7383;SDS011;3733;47.994;8.820;2022-11-15T04:26:03;52.23;;;8.17;;
7383;SDS011;3733;47.994;8.820;2022-11-15T04:28:32;9.27;;;5.00;;
7383;SDS011;3733;47.994;8.820;2022-11-15T04:30:57;8.73;;;5.50;;
7383;SDS011;3733;47.994;8.820;2022-11-15T04:33:23;5.73;;;4.63;;
7383;SDS011;3733;47.994;8.820;2022-11-15T04:35:49;16.13;;;6.00;;
7383;SDS011;3733;47.994;8.820;2022-11-15T04:38:34;19.10;;;5.57;;
7383;SDS011;3733;47.994;8.820;2022-11-15T04:41:01;11.33;;;5.90;;
7383;SDS011;3733;47.994;8.820;2022-11-15T04:43:27;13.00;;;5.67;;
7383;SDS011;3733;47.994;8.820;2022-11-15T04:45:53;9.53;;;5.50;;
7383;SDS011;3733;47.994;8.820;2022-11-15T04:48:19;11.73;;;5.87;;
7383;SDS011;3733;47.994;8.820;2022-11-15T04:50:44;8.00;;;5.60;;
7383;SDS011;3733;47.994;8.820;2022-11-15T04:53:13;10.13;;;6.00;;
7383;SDS011;3733;47.994;8.820;2022-11-15T04:55:39;15.63;;;6.40;;
7383;SDS011;3733;47.994;8.820;2022-11-15T04:58:04;16.80;;;5.93;;
7383;SDS011;3733;47.994;8.820;2022-11-15T05:00:30;14.00;;;6.83;;
7383;SDS011;3733;47.994;8.820;2022-11-15T05:02:56;10.83;;;6.50;;
7383;SDS011;3733;47.994;8.820;2022-11-15T05:05:40;24.90;;;6.53;;
7383;SDS011;3733;47.994;8.820;2022-11-15T05:08:06;21.67;;;6.73;;
7383;SDS011;3733;47.994;8.820;2022-11-15T05:10:32;14.00;;;6.80;;
7383;SDS011;3733;47.994;8.820;2022-11-15T05:12:58;17.63;;;7.40;;
7383;SDS011;3733;47.994;8.820;2022-11-15T05:15:24;14.00;;;6.97;;
7383;SDS011;3733;47.994;8.820;2022-11-15T05:17:49;11.43;;;5.77;;
7383;SDS011;3733;47.994;8.820;2022-11-15T05:20:15;8.30;;;5.80;;
7383;SDS011;3733;47.994;8.820;2022-11-15T05:22:41;8.63;;;5.13;;
7383;SDS011;3733;47.994;8.820;2022-11-15T05:25:07;10.80;;;5.33;;
7383;SDS011;3733;47.994;8.820;2022-11-15T05:27:33;10.00;;;5.07;;
7383;SDS011;3733;47.994;8.820;2022-11-15T05:29:59;10.33;;;5.77;;
7383;SDS011;3733;47.994;8.820;2022-11-15T05:32:25;9.53;;;5.77;;
7383;SDS011;3733;47.994;8.820;2022-11-15T05:34:51;7.57;;;5.57;;
7383;SDS011;3733;47.994;8.820;2022-11-15T05:37:17;11.13;;;6.03;;
7383;SDS011;3733;47.994;8.820;2022-11-15T05:39:43;7.60;;;5.77;;
7383;SDS011;3733;47.994;8.820;2022-11-15T05:42:13;6.07;;;5.33;;
7383;SDS011;3733;47.994;8.820;2022-11-15T05:44:41;10.13;;;6.33;;
7383;SDS011;3733;47.994;8.820;2022-11-15T05:47:10;9.87;;;6.13;;
7383;SDS011;3733;47.994;8.820;2022-11-15T05:49:40;10.60;;;5.97;;
7383;SDS011;3733;47.994;8.820;2022-11-15T05:52:08;22.93;;;6.43;;
7383;SDS011;3733;47.994;8.820;2022-11-15T05:54:38;7.73;;;5.23;;
7383;SDS011;3733;47.994;8.820;2022-11-15T05:57:04;8.67;;;5.93;;
7383;SDS011;3733;47.994;8.820;2022-11-15T05:59:30;8.40;;;5.17;;
7383;SDS011;3733;47.994;8.820;2022-11-15T06:01:58;8.10;;;5.67;;
7383;SDS011;3733;47.994;8.820;2022-11-15T06:04:24;5.63;;;4.70;;
7383;SDS011;3733;47.994;8.820;2022-11-15T06:06:50;5.70;;;4.70;;
7383;SDS011;3733;47.994;8.820;2022-11-15T06:09:16;8.50;;;4.77;;
7383;SDS011;3733;47.994;8.820;2022-11-15T06:11:41;6.97;;;5.70;;
7383;SDS011;3733;47.994;8.820;2022-11-15T06:14:07;5.70;;;4.80;;
7383;SDS011;3733;47.994;8.820;2022-11-15T06:16:33;6.23;;;4.30;;
7383;SDS011;3733;47.994;8.820;2022-11-15T06:18:58;6.40;;;5.20;;
7383;SDS011;3733;47.994;8.820;2022-11-15T06:21:24;4.87;;;4.07;;
7383;SDS011;3733;47.994;8.820;2022-11-15T06:23:52;5.60;;;4.77;;
7383;SDS011;3733;47.994;8.820;2022-11-15T06:26:18;6.40;;;4.57;;
7383;SDS011;3733;47.994;8.820;2022-11-15T06:28:44;5.80;;;4.77;;
7383;SDS011;3733;47.994;8.820;2022-11-15T06:31:10;6.67;;;5.20;;
7383;SDS011;3733;47.994;8.820;2022-11-15T06:33:36;7.27;;;5.20;;
7383;SDS011;3733;47.994;8.820;2022-11-15T06:36:04;10.23;;;6.20;;
7383;SDS011;3733;47.994;8.820;2022-11-15T06:38:31;7.17;;;5.13;;
7383;SDS011;3733;47.994;8.820;2022-11-15T06:41:01;9.53;;;6.00;;
7383;SDS011;3733;47.994;8.820;2022-11-15T06:43:28;7.10;;;5.13;;
7383;SDS011;3733;47.994;8.820;2022-11-15T06:45:53;5.33;;;4.83;;
7383;SDS011;3733;47.994;8.820;2022-11-15T06:48:19;5.87;;;4.67;;
7383;SDS011;3733;47.994;8.820;2022-11-15T06:50:54;5.70;;;4.77;;
7383;SDS011;3733;47.994;8.820;2022-11-15T06:53:21;5.23;;;4.23;;
7383;SDS011;3733;47.994;8.820;2022-11-15T06:55:47;5.43;;;4.37;;
7383;SDS011;3733;47.994;8.820;2022-11-15T06:58:12;5.40;;;4.23;;
7383;SDS011;3733;47.994;8.820;2022-11-15T07:00:38;6.63;;;4.63;;
7383;SDS011;3733;47.994;8.820;2022-11-15T07:03:04;6.07;;;4.80;;
7383;SDS011;3733;47.994;8.820;2022-11-15T07:05:30;6.93;;;5.20;;
7383;SDS011;3733;47.994;8.820;2022-11-15T07:07:56;8.10;;;5.80;;
7383;SDS011;3733;47.994;8.820;2022-11-15T07:10:23;8.20;;;5.87;;
7383;SDS011;3733;47.994;8.820;2022-11-15T07:12:50;9.70;;;5.87;;
7383;SDS011;3733;47.994;8.820;2022-11-15T07:15:17;5.87;;;4.80;;
7383;SDS011;3733;47.994;8.820;2022-11-15T07:17:44;5.30;;;4.03;;
7383;SDS011;3733;47.994;8.820;2022-11-15T07:20:10;5.70;;;4.37;;
7383;SDS011;3733;47.994;8.820;2022-11-15T07:22:38;5.27;;;4.60;;
7383;SDS011;3733;47.994;8.820;2022-11-15T07:25:07;4.87;;;4.07;;
7383;SDS011;3733;47.994;8.820;2022-11-15T07:27:34;4.43;;;4.03;;
7383;SDS011;3733;47.994;8.820;2022-11-15T07:30:00;4.70;;;4.20;;
7383;SDS011;3733;47.994;8.820;2022-11-15T07:32:26;6.70;;;4.00;;
7383;SDS011;3733;47.994;8.820;2022-11-15T07:34:51;5.03;;;4.53;;
7383;SDS011;3733;47.994;8.820;2022-11-15T07:37:17;5.60;;;4.70;;
7383;SDS011;3733;47.994;8.820;2022-11-15T07:39:43;6.50;;;5.30;;
7383;SDS011;3733;47.994;8.820;2022-11-15T07:42:09;10.17;;;7.03;;
7383;SDS011;3733;47.994;8.820;2022-11-15T07:44:53;8.00;;;5.90;;
7383;SDS011;3733;47.994;8.820;2022-11-15T07:47:19;7.20;;;5.27;;
7383;SDS011;3733;47.994;8.820;2022-11-15T07:49:45;9.27;;;5.80;;
7383;SDS011;3733;47.994;8.820;2022-11-15T07:52:11;8.70;;;5.60;;
7383;SDS011;3733;47.994;8.820;2022-11-15T07:54:38;15.23;;;6.57;;
7383;SDS011;3733;47.994;8.820;2022-11-15T07:57:04;11.43;;;5.57;;
7383;SDS011;3733;47.994;8.820;2022-11-15T07:59:30;8.53;;;5.70;;
7383;SDS011;3733;47.994;8.820;2022-11-15T08:01:56;7.10;;;5.67;;
7383;SDS011;3733;47.994;8.820;2022-11-15T08:04:22;14.00;;;5.53;;
7383;SDS011;3733;47.994;8.820;2022-11-15T08:06:47;6.90;;;5.10;;
7383;SDS011;3733;47.994;8.820;2022-11-15T08:09:13;7.60;;;5.10;;
7383;SDS011;3733;47.994;8.820;2022-11-15T08:11:38;6.40;;;4.80;;
7383;SDS011;3733;47.994;8.820;2022-11-15T08:14:04;6.30;;;4.73;;
7383;SDS011;3733;47.994;8.820;2022-11-15T08:16:30;6.80;;;4.50;;
7383;SDS011;3733;47.994;8.820;2022-11-15T08:18:55;7.20;;;5.60;;
7383;SDS011;3733;47.994;8.820;2022-11-15T08:21:21;10.80;;;6.50;;
7383;SDS011;3733;47.994;8.820;2022-11-15T08:23:47;10.13;;;6.07;;
7383;SDS011;3733;47.994;8.820;2022-11-15T08:26:13;9.10;;;6.40;;
7383;SDS011;3733;47.994;8.820;2022-11-15T08:28:39;12.03;;;6.70;;
7383;SDS011;3733;47.994;8.820;2022-11-15T08:31:05;11.90;;;6.73;;
7383;SDS011;3733;47.994;8.820;2022-11-15T08:33:31;11.33;;;6.57;;
7383;SDS011;3733;47.994;8.820;2022-11-15T08:35:58;8.93;;;6.33;;
7383;SDS011;3733;47.994;8.820;2022-11-15T08:38:25;8.80;;;5.53;;
7383;SDS011;3733;47.994;8.820;2022-11-15T08:40:53;9.10;;;5.50;;
7383;SDS011;3733;47.994;8.820;2022-11-15T08:43:28;9.50;;;5.23;;
7383;SDS011;3733;47.994;8.820;2022-11-15T08:45:57;10.70;;;5.70;;
7383;SDS011;3733;47.994;8.820;2022-11-15T08:48:23;26.83;;;7.53;;
7383;SDS011;3733;47.994;8.820;2022-11-15T08:50:53;6.20;;;4.37;;
7383;SDS011;3733;47.994;8.820;2022-11-15T08:53:20;8.80;;;4.50;;
7383;SDS011;3733;47.994;8.820;2022-11-15T08:55:46;5.00;;;3.90;;
7383;SDS011;3733;47.994;8.820;2022-11-15T08:58:11;7.77;;;4.60;;
7383;SDS011;3733;47.994;8.820;2022-11-15T09:00:37;10.07;;;4.90;;
7383;SDS011;3733;47.994;8.820;2022-11-15T09:03:03;5.80;;;4.33;;
7383;SDS011;3733;47.994;8.820;2022-11-15T09:05:30;4.00;;;3.63;;
7383;SDS011;3733;47.994;8.820;2022-11-15T09:07:56;5.43;;;4.47;;
7383;SDS011;3733;47.994;8.820;2022-11-15T09:10:22;6.13;;;4.00;;
7383;SDS011;3733;47.994;8.820;2022-11-15T09:12:47;9.63;;;4.07;;
7383;SDS011;3733;47.994;8.820;2022-11-15T09:15:13;6.10;;;3.90;;
7383;SDS011;3733;47.994;8.820;2022-11-15T09:17:40;3.80;;;3.13;;
7383;SDS011;3733;47.994;8.820;2022-11-15T09:20:06;4.20;;;3.77;;
7383;SDS011;3733;47.994;8.820;2022-11-15T09:22:32;5.03;;;4.17;;
7383;SDS011;3733;47.994;8.820;2022-11-15T09:24:58;6.87;;;4.50;;
7383;SDS011;3733;47.994;8.820;2022-11-15T09:27:27;8.30;;;5.37;;
7383;SDS011;3733;47.994;8.820;2022-11-15T09:29:54;6.93;;;5.67;;
7383;SDS011;3733;47.994;8.820;2022-11-15T09:32:19;18.33;;;7.80;;
7383;SDS011;3733;47.994;8.820;2022-11-15T09:34:45;10.37;;;7.53;;
7383;SDS011;3733;47.994;8.820;2022-11-15T09:37:11;13.23;;;8.23;;
7383;SDS011;3733;47.994;8.820;2022-11-15T09:39:37;13.67;;;8.70;;
7383;SDS011;3733;47.994;8.820;2022-11-15T09:50:37;15.17;;;7.97;;
7383;SDS011;3733;47.994;8.820;2022-11-15T09:53:12;12.90;;;7.30;;
7383;SDS011;3733;47.994;8.820;2022-11-15T09:56:00;10.70;;;6.87;;
7383;SDS011;3733;47.994;8.820;2022-11-15T09:59:01;11.13;;;6.30;;
7383;SDS011;3733;47.994;8.820;2022-11-15T10:02:04;17.83;;;7.20;;
7383;SDS011;3733;47.994;8.820;2022-11-15T10:04:54;12.17;;;7.50;;
7383;SDS011;3733;47.994;8.820;2022-11-15T10:07:31;12.60;;;6.80;;
7383;SDS011;3733;47.994;8.820;2022-11-15T10:12:48;10.00;;;7.67;;
7383;SDS011;3733;47.994;8.820;2022-11-15T10:15:17;14.73;;;8.37;;
7383;SDS011;3733;47.994;8.820;2022-11-15T10:20:58;17.90;;;9.10;;
7383;SDS011;3733;47.994;8.820;2022-11-15T10:23:25;16.93;;;10.07;;
7383;SDS011;3733;47.994;8.820;2022-11-15T10:25:54;14.23;;;9.40;;
7383;SDS011;3733;47.994;8.820;2022-11-15T10:28:26;25.20;;;9.77;;
7383;SDS011;3733;47.994;8.820;2022-11-15T10:30:56;19.00;;;10.50;;
7383;SDS011;3733;47.994;8.820;2022-11-15T10:33:25;16.63;;;11.13;;
7383;SDS011;3733;47.994;8.820;2022-11-15T10:43:44;20.87;;;10.37;;
7383;SDS011;3733;47.994;8.820;2022-11-15T10:46:18;15.40;;;10.30;;
7383;SDS011;3733;47.994;8.820;2022-11-15T10:48:48;16.13;;;9.83;;
7383;SDS011;3733;47.994;8.820;2022-11-15T10:51:22;18.47;;;9.73;;
7383;SDS011;3733;47.994;8.820;2022-11-15T10:53:54;17.20;;;9.77;;
7383;SDS011;3733;47.994;8.820;2022-11-15T10:56:22;22.57;;;10.00;;
7383;SDS011;3733;47.994;8.820;2022-11-15T10:58:52;18.80;;;10.20;;
7383;SDS011;3733;47.994;8.820;2022-11-15T11:01:23;15.13;;;9.53;;
7383;SDS011;3733;47.994;8.820;2022-11-15T11:04:04;14.27;;;9.47;;
7383;SDS011;3733;47.994;8.820;2022-11-15T11:09:22;23.00;;;11.93;;
7383;SDS011;3733;47.994;8.820;2022-11-15T11:11:48;22.90;;;13.53;;
7383;SDS011;3733;47.994;8.820;2022-11-15T11:14:25;25.63;;;14.10;;
7383;SDS011;3733;47.994;8.820;2022-11-15T11:25:54;19.17;;;12.70;;
7383;SDS011;3733;47.994;8.820;2022-11-15T11:39:18;21.80;;;10.10;;
7383;SDS011;3733;47.994;8.820;2022-11-15T11:47:30;15.37;;;9.23;;
7383;SDS011;3733;47.994;8.820;2022-11-15T11:50:12;15.80;;;10.20;;
7383;SDS011;3733;47.994;8.820;2022-11-15T11:55:47;14.80;;;9.43;;
7383;SDS011;3733;47.994;8.820;2022-11-15T11:58:37;13.83;;;8.70;;
7383;SDS011;3733;47.994;8.820;2022-11-15T12:03:59;16.40;;;10.63;;
7383;SDS011;3733;47.994;8.820;2022-11-15T12:06:51;15.80;;;11.80;;
7383;SDS011;3733;47.994;8.820;2022-11-15T12:12:36;15.20;;;10.43;;
7383;SDS011;3733;47.994;8.820;2022-11-15T12:15:12;25.63;;;11.77;;
7383;SDS011;3733;47.994;8.820;2022-11-15T12:17:43;23.80;;;11.20;;
7383;SDS011;3733;47.994;8.820;2022-11-15T12:20:15;18.07;;;11.10;;
7383;SDS011;3733;47.994;8.820;2022-11-15T12:22:52;23.23;;;11.23;;
7383;SDS011;3733;47.994;8.820;2022-11-15T12:25:39;12.37;;;8.60;;
7383;SDS011;3733;47.994;8.820;2022-11-15T12:30:51;19.47;;;10.10;;
7383;SDS011;3733;47.994;8.820;2022-11-15T12:44:01;15.90;;;8.63;;
7383;SDS011;3733;47.994;8.820;2022-11-15T12:49:54;20.00;;;10.37;;
7383;SDS011;3733;47.994;8.820;2022-11-15T12:52:07;16.40;;;10.00;;
7383;SDS011;3733;47.994;8.820;2022-11-15T13:04:43;15.50;;;9.83;;
7383;SDS011;3733;47.994;8.820;2022-11-15T13:07:09;18.80;;;10.50;;
7383;SDS011;3733;47.994;8.820;2022-11-15T13:20:23;21.67;;;11.73;;
7383;SDS011;3733;47.994;8.820;2022-11-15T13:23:02;20.30;;;12.40;;
7383;SDS011;3733;47.994;8.820;2022-11-15T13:30:48;20.40;;;12.40;;
7383;SDS011;3733;47.994;8.820;2022-11-15T13:33:35;17.73;;;12.07;;
7383;SDS011;3733;47.994;8.820;2022-11-15T13:36:06;18.53;;;12.20;;
7383;SDS011;3733;47.994;8.820;2022-11-15T13:38:42;16.10;;;11.17;;
7383;SDS011;3733;47.994;8.820;2022-11-15T13:41:18;17.10;;;11.07;;
7383;SDS011;3733;47.994;8.820;2022-11-15T13:43:46;18.43;;;11.83;;
7383;SDS011;3733;47.994;8.820;2022-11-15T13:46:14;24.00;;;14.00;;
7383;SDS011;3733;47.994;8.820;2022-11-15T13:48:43;18.90;;;13.10;;
7383;SDS011;3733;47.994;8.820;2022-11-15T13:51:14;22.30;;;12.20;;
7383;SDS011;3733;47.994;8.820;2022-11-15T13:54:05;21.17;;;12.20;;
7383;SDS011;3733;47.994;8.820;2022-11-15T13:56:32;21.80;;;11.80;;
7383;SDS011;3733;47.994;8.820;2022-11-15T13:58:59;20.67;;;13.17;;
7383;SDS011;3733;47.994;8.820;2022-11-15T14:01:26;22.67;;;13.00;;
7383;SDS011;3733;47.994;8.820;2022-11-15T14:03:56;24.67;;;12.83;;
7383;SDS011;3733;47.994;8.820;2022-11-15T14:06:28;20.50;;;11.00;;
7383;SDS011;3733;47.994;8.820;2022-11-15T14:11:26;15.87;;;9.70;;
7383;SDS011;3733;47.994;8.820;2022-11-15T14:14:26;17.23;;;10.30;;
7383;SDS011;3733;47.994;8.820;2022-11-15T14:24:34;15.97;;;10.27;;
7383;SDS011;3733;47.994;8.820;2022-11-15T14:27:20;20.70;;;11.23;;
7383;SDS011;3733;47.994;8.820;2022-11-15T14:29:54;24.30;;;11.03;;
7383;SDS011;3733;47.994;8.820;2022-11-15T14:32:21;19.77;;;11.87;;
7383;SDS011;3733;47.994;8.820;2022-11-15T14:34:56;21.77;;;13.37;;
7383;SDS011;3733;47.994;8.820;2022-11-15T14:37:27;21.80;;;14.27;;
7383;SDS011;3733;47.994;8.820;2022-11-15T14:39:56;25.93;;;15.10;;
7383;SDS011;3733;47.994;8.820;2022-11-15T14:42:22;28.00;;;16.57;;
7383;SDS011;3733;47.994;8.820;2022-11-15T14:44:48;24.33;;;14.90;;
7383;SDS011;3733;47.994;8.820;2022-11-15T14:47:14;25.07;;;13.87;;
7383;SDS011;3733;47.994;8.820;2022-11-15T14:49:40;19.97;;;12.90;;
7383;SDS011;3733;47.994;8.820;2022-11-15T14:54:53;25.53;;;14.67;;
7383;SDS011;3733;47.994;8.820;2022-11-15T14:57:23;21.63;;;13.40;;
7383;SDS011;3733;47.994;8.820;2022-11-15T14:59:49;24.47;;;12.67;;
7383;SDS011;3733;47.994;8.820;2022-11-15T15:02:16;20.53;;;11.97;;
7383;SDS011;3733;47.994;8.820;2022-11-15T15:04:52;21.03;;;12.00;;
7383;SDS011;3733;47.994;8.820;2022-11-15T15:07:18;24.87;;;12.63;;
7383;SDS011;3733;47.994;8.820;2022-11-15T15:09:44;23.63;;;12.60;;
7383;SDS011;3733;47.994;8.820;2022-11-15T15:12:22;18.73;;;12.73;;
7383;SDS011;3733;47.994;8.820;2022-11-15T15:14:49;24.60;;;14.30;;
7383;SDS011;3733;47.994;8.820;2022-11-15T15:17:15;21.77;;;14.17;;
7383;SDS011;3733;47.994;8.820;2022-11-15T15:19:42;22.40;;;13.30;;
7383;SDS011;3733;47.994;8.820;2022-11-15T15:22:15;22.50;;;13.40;;
7383;SDS011;3733;47.994;8.820;2022-11-15T15:24:42;21.17;;;13.30;;
7383;SDS011;3733;47.994;8.820;2022-11-15T15:27:08;25.43;;;14.03;;
7383;SDS011;3733;47.994;8.820;2022-11-15T15:29:34;23.23;;;13.73;;
7383;SDS011;3733;47.994;8.820;2022-11-15T15:32:00;32.27;;;15.20;;
7383;SDS011;3733;47.994;8.820;2022-11-15T15:34:25;26.13;;;15.57;;
7383;SDS011;3733;47.994;8.820;2022-11-15T15:37:07;17.53;;;12.27;;
7383;SDS011;3733;47.994;8.820;2022-11-15T15:39:33;20.53;;;11.07;;
7383;SDS011;3733;47.994;8.820;2022-11-15T15:41:59;18.20;;;11.40;;
7383;SDS011;3733;47.994;8.820;2022-11-15T15:44:24;16.93;;;11.87;;
7383;SDS011;3733;47.994;8.820;2022-11-15T15:46:50;18.93;;;10.97;;
7383;SDS011;3733;47.994;8.820;2022-11-15T15:49:16;20.90;;;13.50;;
7383;SDS011;3733;47.994;8.820;2022-11-15T15:51:41;19.83;;;13.50;;
7383;SDS011;3733;47.994;8.820;2022-11-15T15:54:07;20.27;;;13.37;;
7383;SDS011;3733;47.994;8.820;2022-11-15T15:56:32;20.47;;;13.00;;
7383;SDS011;3733;47.994;8.820;2022-11-15T15:58:58;21.63;;;12.80;;
7383;SDS011;3733;47.994;8.820;2022-11-15T16:01:24;17.80;;;11.23;;
7383;SDS011;3733;47.994;8.820;2022-11-15T16:03:49;17.53;;;11.47;;
7383;SDS011;3733;47.994;8.820;2022-11-15T16:09:01;28.03;;;16.33;;
7383;SDS011;3733;47.994;8.820;2022-11-15T16:11:28;22.53;;;15.57;;
7383;SDS011;3733;47.994;8.820;2022-11-15T16:13:53;29.40;;;17.43;;
7383;SDS011;3733;47.994;8.820;2022-11-15T16:16:19;26.83;;;16.87;;
7383;SDS011;3733;47.994;8.820;2022-11-15T16:18:46;19.57;;;12.57;;
7383;SDS011;3733;47.994;8.820;2022-11-15T16:21:12;29.67;;;15.13;;
7383;SDS011;3733;47.994;8.820;2022-11-15T16:23:37;19.33;;;13.40;;
7383;SDS011;3733;47.994;8.820;2022-11-15T16:26:06;21.00;;;13.63;;
7383;SDS011;3733;47.994;8.820;2022-11-15T16:28:50;24.17;;;12.70;;
7383;SDS011;3733;47.994;8.820;2022-11-15T16:31:16;21.13;;;13.10;;
7383;SDS011;3733;47.994;8.820;2022-11-15T16:33:44;18.80;;;12.50;;
7383;SDS011;3733;47.994;8.820;2022-11-15T16:38:42;19.13;;;12.97;;
7383;SDS011;3733;47.994;8.820;2022-11-15T16:41:08;20.00;;;11.90;;
7383;SDS011;3733;47.994;8.820;2022-11-15T16:43:33;15.50;;;10.60;;
7383;SDS011;3733;47.994;8.820;2022-11-15T16:46:00;18.03;;;9.83;;
7383;SDS011;3733;47.994;8.820;2022-11-15T16:48:33;14.27;;;8.33;;
7383;SDS011;3733;47.994;8.820;2022-11-15T16:50:59;20.77;;;7.67;;
7383;SDS011;3733;47.994;8.820;2022-11-15T16:53:25;10.73;;;7.40;;
7383;SDS011;3733;47.994;8.820;2022-11-15T16:55:52;9.90;;;7.13;;
7383;SDS011;3733;47.994;8.820;2022-11-15T16:58:19;15.53;;;7.90;;
7383;SDS011;3733;47.994;8.820;2022-11-15T17:00:44;13.30;;;9.00;;
7383;SDS011;3733;47.994;8.820;2022-11-15T17:03:14;13.43;;;8.70;;
7383;SDS011;3733;47.994;8.820;2022-11-15T17:05:40;12.30;;;7.73;;
7383;SDS011;3733;47.994;8.820;2022-11-15T17:08:07;10.57;;;6.90;;
7383;SDS011;3733;47.994;8.820;2022-11-15T17:10:32;13.00;;;8.17;;
7383;SDS011;3733;47.994;8.820;2022-11-15T17:12:58;10.10;;;6.53;;
7383;SDS011;3733;47.994;8.820;2022-11-15T17:15:24;8.07;;;6.00;;
7383;SDS011;3733;47.994;8.820;2022-11-15T17:17:51;11.00;;;7.17;;
7383;SDS011;3733;47.994;8.820;2022-11-15T17:20:18;12.77;;;8.20;;
7383;SDS011;3733;47.994;8.820;2022-11-15T17:22:44;11.00;;;7.60;;
7383;SDS011;3733;47.994;8.820;2022-11-15T17:25:11;13.43;;;8.30;;
7383;SDS011;3733;47.994;8.820;2022-11-15T17:27:38;12.53;;;8.17;;
7383;SDS011;3733;47.994;8.820;2022-11-15T17:30:04;15.17;;;8.70;;
7383;SDS011;3733;47.994;8.820;2022-11-15T17:32:30;29.73;;;17.07;;
7383;SDS011;3733;47.994;8.820;2022-11-15T17:34:56;22.63;;;13.87;;
7383;SDS011;3733;47.994;8.820;2022-11-15T17:37:22;22.90;;;12.47;;
7383;SDS011;3733;47.994;8.820;2022-11-15T17:39:47;19.80;;;12.53;;